sensor_id;sensor_type;location;lat;lon;timestamp;P1;durP1;ratioP1;P2;durP2;ratioP2
18046;SDS011;9148;51.454;13.862;2024-03-23T00:52:06;19.87;;;9.70;;
18046;SDS011;9148;51.454;13.862;2024-03-23T00:54:32;17.07;;;10.27;;
18046;SDS011;9148;51.454;13.862;2024-03-23T00:56:57;14.87;;;9.40;;
18046;SDS011;9148;51.454;13.862;2024-03-23T00:59:23;15.30;;;10.20;;
18046;SDS011;9148;51.454;13.862;2024-03-23T01:01:52;16.33;;;11.23;;
18046;SDS011;9148;51.454;13.862;2024-03-23T01:04:18;15.70;;;10.33;;
18046;SDS011;9148;51.454;13.862;2024-03-23T01:06:43;15.60;;;8.93;;
18046;SDS011;9148;51.454;13.862;2024-03-23T01:09:09;18.00;;;10.93;;
18046;SDS011;9148;51.454;13.862;2024-03-23T01:11:35;12.73;;;8.83;;
18046;SDS011;9148;51.454;13.862;2024-03-23T01:14:02;17.73;;;10.17;;
18046;SDS011;9148;51.454;13.862;2024-03-23T01:16:28;14.57;;;9.23;;
18046;SDS011;9148;51.454;13.862;2024-03-23T01:18:53;15.83;;;9.27;;
18046;SDS011;9148;51.454;13.862;2024-03-23T01:21:19;16.67;;;9.67;;
18046;SDS011;9148;51.454;13.862;2024-03-23T01:23:45;15.27;;;9.77;;
18046;SDS011;9148;51.454;13.862;2024-03-23T01:26:10;15.37;;;9.73;;
18046;SDS011;9148;51.454;13.862;2024-03-23T01:28:36;13.60;;;8.20;;
18046;SDS011;9148;51.454;13.862;2024-03-23T01:31:02;15.60;;;10.30;;
18046;SDS011;9148;51.454;13.862;2024-03-23T01:33:28;12.47;;;8.37;;
18046;SDS011;9148;51.454;13.862;2024-03-23T01:35:53;14.13;;;9.63;;
18046;SDS011;9148;51.454;13.862;2024-03-23T01:38:19;16.07;;;10.10;;
18046;SDS011;9148;51.454;13.862;2024-03-23T01:40:45;14.73;;;9.33;;
18046;SDS011;9148;51.454;13.862;2024-03-23T01:43:11;12.57;;;8.70;;
18046;SDS011;9148;51.454;13.862;2024-03-23T01:45:37;15.13;;;9.87;;
18046;SDS011;9148;51.454;13.862;2024-03-23T01:48:06;10.73;;;8.20;;
18046;SDS011;9148;51.454;13.862;2024-03-23T01:50:32;12.03;;;8.10;;
18046;SDS011;9148;51.454;13.862;2024-03-23T01:52:59;13.20;;;8.33;;
18046;SDS011;9148;51.454;13.862;2024-03-23T01:55:30;15.53;;;8.23;;
18046;SDS011;9148;51.454;13.862;2024-03-23T01:57:59;12.50;;;7.17;;
18046;SDS011;9148;51.454;13.862;2024-03-23T02:00:25;14.83;;;8.67;;
18046;SDS011;9148;51.454;13.862;2024-03-23T02:02:52;11.97;;;7.70;;
18046;SDS011;9148;51.454;13.862;2024-03-23T02:05:18;15.27;;;7.87;;
18046;SDS011;9148;51.454;13.862;2024-03-23T02:07:44;14.27;;;8.13;;
18046;SDS011;9148;51.454;13.862;2024-03-23T02:10:10;17.17;;;9.43;;
18046;SDS011;9148;51.454;13.862;2024-03-23T02:12:38;10.77;;;8.00;;
18046;SDS011;9148;51.454;13.862;2024-03-23T02:15:04;15.43;;;10.00;;
18046;SDS011;9148;51.454;13.862;2024-03-23T02:17:30;19.03;;;9.73;;
18046;SDS011;9148;51.454;13.862;2024-03-23T02:20:00;20.43;;;9.33;;
18046;SDS011;9148;51.454;13.862;2024-03-23T02:22:36;10.43;;;7.23;;
18046;SDS011;9148;51.454;13.862;2024-03-23T02:25:03;12.57;;;7.80;;
18046;SDS011;9148;51.454;13.862;2024-03-23T02:27:30;12.13;;;7.97;;
18046;SDS011;9148;51.454;13.862;2024-03-23T02:29:55;12.23;;;8.50;;
18046;SDS011;9148;51.454;13.862;2024-03-23T02:32:21;10.87;;;8.37;;
18046;SDS011;9148;51.454;13.862;2024-03-23T02:34:47;11.67;;;7.73;;
18046;SDS011;9148;51.454;13.862;2024-03-23T02:37:12;14.17;;;7.93;;
18046;SDS011;9148;51.454;13.862;2024-03-23T02:39:38;12.53;;;7.57;;
18046;SDS011;9148;51.454;13.862;2024-03-23T02:42:03;16.10;;;9.47;;
18046;SDS011;9148;51.454;13.862;2024-03-23T02:44:29;14.63;;;8.87;;
18046;SDS011;9148;51.454;13.862;2024-03-23T02:46:55;12.97;;;8.80;;
18046;SDS011;9148;51.454;13.862;2024-03-23T02:49:21;12.43;;;8.53;;
18046;SDS011;9148;51.454;13.862;2024-03-23T02:51:46;12.10;;;9.07;;
18046;SDS011;9148;51.454;13.862;2024-03-23T02:54:13;8.83;;;7.10;;
18046;SDS011;9148;51.454;13.862;2024-03-23T02:56:39;10.73;;;8.07;;
18046;SDS011;9148;51.454;13.862;2024-03-23T02:59:05;12.03;;;8.20;;
18046;SDS011;9148;51.454;13.862;2024-03-23T03:01:30;15.63;;;9.10;;
18046;SDS011;9148;51.454;13.862;2024-03-23T03:03:56;10.90;;;8.00;;
18046;SDS011;9148;51.454;13.862;2024-03-23T03:06:22;12.47;;;9.07;;
18046;SDS011;9148;51.454;13.862;2024-03-23T03:08:51;15.87;;;8.67;;
18046;SDS011;9148;51.454;13.862;2024-03-23T03:11:17;14.13;;;7.53;;
18046;SDS011;9148;51.454;13.862;2024-03-23T03:13:43;12.20;;;8.10;;
18046;SDS011;9148;51.454;13.862;2024-03-23T03:16:12;14.20;;;8.33;;
18046;SDS011;9148;51.454;13.862;2024-03-23T03:18:38;10.67;;;7.90;;
18046;SDS011;9148;51.454;13.862;2024-03-23T03:21:05;12.13;;;7.33;;
18046;SDS011;9148;51.454;13.862;2024-03-23T03:23:35;15.10;;;9.33;;
18046;SDS011;9148;51.454;13.862;2024-03-23T03:26:02;12.40;;;7.47;;
18046;SDS011;9148;51.454;13.862;2024-03-23T03:28:28;13.73;;;9.73;;
18046;SDS011;9148;51.454;13.862;2024-03-23T03:30:56;19.50;;;11.40;;
18046;SDS011;9148;51.454;13.862;2024-03-23T03:33:22;14.47;;;8.87;;
18046;SDS011;9148;51.454;13.862;2024-03-23T03:35:47;13.77;;;9.20;;
18046;SDS011;9148;51.454;13.862;2024-03-23T03:38:13;12.70;;;7.70;;
18046;SDS011;9148;51.454;13.862;2024-03-23T03:40:39;16.10;;;8.47;;
18046;SDS011;9148;51.454;13.862;2024-03-23T03:43:06;10.37;;;8.10;;
18046;SDS011;9148;51.454;13.862;2024-03-23T03:45:32;16.53;;;9.57;;
18046;SDS011;9148;51.454;13.862;2024-03-23T03:47:58;19.10;;;8.67;;
18046;SDS011;9148;51.454;13.862;2024-03-23T03:50:24;17.83;;;10.10;;
18046;SDS011;9148;51.454;13.862;2024-03-23T03:52:50;16.17;;;10.10;;
18046;SDS011;9148;51.454;13.862;2024-03-23T03:55:16;16.73;;;8.23;;
18046;SDS011;9148;51.454;13.862;2024-03-23T03:57:42;12.43;;;9.90;;
18046;SDS011;9148;51.454;13.862;2024-03-23T04:00:08;17.83;;;8.93;;
18046;SDS011;9148;51.454;13.862;2024-03-23T04:02:36;11.10;;;7.77;;
18046;SDS011;9148;51.454;13.862;2024-03-23T04:05:03;11.90;;;8.80;;
18046;SDS011;9148;51.454;13.862;2024-03-23T04:07:29;13.27;;;8.63;;
18046;SDS011;9148;51.454;13.862;2024-03-23T04:09:55;11.60;;;6.00;;
18046;SDS011;9148;51.454;13.862;2024-03-23T04:12:23;7.97;;;4.60;;
18046;SDS011;9148;51.454;13.862;2024-03-23T04:14:49;6.73;;;4.03;;
18046;SDS011;9148;51.454;13.862;2024-03-23T04:17:15;9.93;;;3.83;;
18046;SDS011;9148;51.454;13.862;2024-03-23T04:19:41;4.37;;;3.10;;
18046;SDS011;9148;51.454;13.862;2024-03-23T04:22:07;10.33;;;3.43;;
18046;SDS011;9148;51.454;13.862;2024-03-23T04:24:33;5.53;;;2.60;;
18046;SDS011;9148;51.454;13.862;2024-03-23T04:26:58;3.80;;;1.80;;
18046;SDS011;9148;51.454;13.862;2024-03-23T04:29:24;5.93;;;2.53;;
18046;SDS011;9148;51.454;13.862;2024-03-23T04:31:51;2.53;;;1.50;;
18046;SDS011;9148;51.454;13.862;2024-03-23T04:34:17;3.93;;;1.60;;
18046;SDS011;9148;51.454;13.862;2024-03-23T04:36:43;6.93;;;1.90;;
18046;SDS011;9148;51.454;13.862;2024-03-23T04:39:09;2.50;;;1.27;;
18046;SDS011;9148;51.454;13.862;2024-03-23T04:41:35;7.67;;;1.87;;
18046;SDS011;9148;51.454;13.862;2024-03-23T04:44:01;3.60;;;1.43;;
18046;SDS011;9148;51.454;13.862;2024-03-23T04:46:27;0.90;;;0.90;;
18046;SDS011;9148;51.454;13.862;2024-03-23T04:48:52;4.30;;;1.60;;
18046;SDS011;9148;51.454;13.862;2024-03-23T04:51:22;3.60;;;1.00;;
18046;SDS011;9148;51.454;13.862;2024-03-23T04:53:48;4.70;;;1.43;;
18046;SDS011;9148;51.454;13.862;2024-03-23T04:56:17;2.27;;;1.23;;
18046;SDS011;9148;51.454;13.862;2024-03-23T04:58:43;2.87;;;1.17;;
18046;SDS011;9148;51.454;13.862;2024-03-23T05:01:10;1.23;;;1.13;;
18046;SDS011;9148;51.454;13.862;2024-03-23T05:03:36;2.57;;;1.40;;
18046;SDS011;9148;51.454;13.862;2024-03-23T05:06:02;3.03;;;1.43;;
18046;SDS011;9148;51.454;13.862;2024-03-23T05:08:30;3.67;;;1.30;;
18046;SDS011;9148;51.454;13.862;2024-03-23T05:10:55;1.47;;;1.37;;
18046;SDS011;9148;51.454;13.862;2024-03-23T05:13:21;1.00;;;0.67;;
18046;SDS011;9148;51.454;13.862;2024-03-23T05:15:53;6.03;;;1.53;;
18046;SDS011;9148;51.454;13.862;2024-03-23T05:18:20;2.33;;;0.70;;
18046;SDS011;9148;51.454;13.862;2024-03-23T05:20:46;1.70;;;1.30;;
18046;SDS011;9148;51.454;13.862;2024-03-23T05:23:12;5.33;;;1.37;;
18046;SDS011;9148;51.454;13.862;2024-03-23T05:25:38;2.97;;;1.30;;
18046;SDS011;9148;51.454;13.862;2024-03-23T05:28:03;6.50;;;2.33;;
18046;SDS011;9148;51.454;13.862;2024-03-23T05:30:30;3.27;;;1.37;;
18046;SDS011;9148;51.454;13.862;2024-03-23T05:32:56;2.83;;;1.10;;
18046;SDS011;9148;51.454;13.862;2024-03-23T05:35:21;12.03;;;1.97;;
18046;SDS011;9148;51.454;13.862;2024-03-23T05:37:47;3.70;;;1.17;;
18046;SDS011;9148;51.454;13.862;2024-03-23T05:40:14;8.50;;;1.27;;
18046;SDS011;9148;51.454;13.862;2024-03-23T05:42:40;3.90;;;1.03;;
18046;SDS011;9148;51.454;13.862;2024-03-23T05:45:06;2.30;;;1.33;;
18046;SDS011;9148;51.454;13.862;2024-03-23T05:47:33;2.23;;;1.07;;
18046;SDS011;9148;51.454;13.862;2024-03-23T05:49:58;11.23;;;1.57;;
18046;SDS011;9148;51.454;13.862;2024-03-23T05:52:24;4.47;;;1.37;;
18046;SDS011;9148;51.454;13.862;2024-03-23T05:54:50;1.40;;;1.27;;
18046;SDS011;9148;51.454;13.862;2024-03-23T05:57:16;1.77;;;1.03;;
18046;SDS011;9148;51.454;13.862;2024-03-23T05:59:43;4.27;;;1.43;;
18046;SDS011;9148;51.454;13.862;2024-03-23T06:02:09;4.60;;;1.37;;
18046;SDS011;9148;51.454;13.862;2024-03-23T06:04:35;1.20;;;1.00;;
18046;SDS011;9148;51.454;13.862;2024-03-23T06:07:01;5.50;;;1.30;;
18046;SDS011;9148;51.454;13.862;2024-03-23T06:09:27;6.37;;;1.70;;
18046;SDS011;9148;51.454;13.862;2024-03-23T06:11:52;6.40;;;1.60;;
18046;SDS011;9148;51.454;13.862;2024-03-23T06:14:18;2.20;;;1.73;;
18046;SDS011;9148;51.454;13.862;2024-03-23T06:16:44;2.10;;;1.27;;
18046;SDS011;9148;51.454;13.862;2024-03-23T06:19:09;7.10;;;3.70;;
18046;SDS011;9148;51.454;13.862;2024-03-23T06:21:35;5.57;;;2.77;;
18046;SDS011;9148;51.454;13.862;2024-03-23T06:24:01;5.83;;;2.60;;
18046;SDS011;9148;51.454;13.862;2024-03-23T06:26:27;6.70;;;1.43;;
18046;SDS011;9148;51.454;13.862;2024-03-23T06:28:52;5.73;;;1.23;;
18046;SDS011;9148;51.454;13.862;2024-03-23T06:31:18;2.77;;;1.17;;
18046;SDS011;9148;51.454;13.862;2024-03-23T06:33:47;7.07;;;1.53;;
18046;SDS011;9148;51.454;13.862;2024-03-23T06:36:13;2.40;;;1.30;;
18046;SDS011;9148;51.454;13.862;2024-03-23T06:38:38;12.00;;;1.63;;
18046;SDS011;9148;51.454;13.862;2024-03-23T06:41:05;3.17;;;1.37;;
18046;SDS011;9148;51.454;13.862;2024-03-23T06:43:31;1.50;;;1.13;;
18046;SDS011;9148;51.454;13.862;2024-03-23T06:45:56;3.87;;;1.00;;
18046;SDS011;9148;51.454;13.862;2024-03-23T06:48:22;2.77;;;1.40;;
18046;SDS011;9148;51.454;13.862;2024-03-23T06:50:48;7.87;;;1.13;;
18046;SDS011;9148;51.454;13.862;2024-03-23T06:53:14;8.60;;;1.63;;
18046;SDS011;9148;51.454;13.862;2024-03-23T06:55:40;2.30;;;1.83;;
18046;SDS011;9148;51.454;13.862;2024-03-23T06:58:06;3.13;;;1.43;;
18046;SDS011;9148;51.454;13.862;2024-03-23T07:00:32;5.27;;;1.73;;
18046;SDS011;9148;51.454;13.862;2024-03-23T07:02:59;2.20;;;1.33;;
18046;SDS011;9148;51.454;13.862;2024-03-23T07:05:25;3.33;;;1.73;;
18046;SDS011;9148;51.454;13.862;2024-03-23T07:07:51;6.30;;;2.23;;
18046;SDS011;9148;51.454;13.862;2024-03-23T07:10:16;2.97;;;1.73;;
18046;SDS011;9148;51.454;13.862;2024-03-23T07:12:42;7.07;;;1.97;;
18046;SDS011;9148;51.454;13.862;2024-03-23T07:15:08;4.57;;;2.00;;
18046;SDS011;9148;51.454;13.862;2024-03-23T07:17:34;2.33;;;1.27;;
18046;SDS011;9148;51.454;13.862;2024-03-23T07:20:00;2.67;;;2.20;;
18046;SDS011;9148;51.454;13.862;2024-03-23T07:22:29;5.87;;;2.17;;
18046;SDS011;9148;51.454;13.862;2024-03-23T07:24:56;7.60;;;2.53;;
18046;SDS011;9148;51.454;13.862;2024-03-23T07:27:22;2.57;;;2.13;;
18046;SDS011;9148;51.454;13.862;2024-03-23T07:29:48;6.27;;;2.60;;
18046;SDS011;9148;51.454;13.862;2024-03-23T07:32:14;9.67;;;2.40;;
18046;SDS011;9148;51.454;13.862;2024-03-23T07:34:40;8.67;;;2.30;;
18046;SDS011;9148;51.454;13.862;2024-03-23T07:37:08;6.87;;;2.50;;
18046;SDS011;9148;51.454;13.862;2024-03-23T07:39:34;2.83;;;2.63;;
18046;SDS011;9148;51.454;13.862;2024-03-23T07:41:59;5.03;;;3.13;;
18046;SDS011;9148;51.454;13.862;2024-03-23T07:44:25;8.33;;;3.20;;
18046;SDS011;9148;51.454;13.862;2024-03-23T07:46:50;5.43;;;3.00;;
18046;SDS011;9148;51.454;13.862;2024-03-23T07:49:16;5.30;;;2.73;;
18046;SDS011;9148;51.454;13.862;2024-03-23T07:51:43;4.43;;;2.50;;
18046;SDS011;9148;51.454;13.862;2024-03-23T07:54:09;5.20;;;2.87;;
18046;SDS011;9148;51.454;13.862;2024-03-23T07:56:35;4.73;;;2.53;;
18046;SDS011;9148;51.454;13.862;2024-03-23T07:59:01;6.07;;;2.73;;
18046;SDS011;9148;51.454;13.862;2024-03-23T08:01:28;8.63;;;4.07;;
18046;SDS011;9148;51.454;13.862;2024-03-23T08:03:54;15.47;;;5.03;;
18046;SDS011;9148;51.454;13.862;2024-03-23T08:06:19;9.73;;;4.07;;
18046;SDS011;9148;51.454;13.862;2024-03-23T08:08:47;10.47;;;4.00;;
18046;SDS011;9148;51.454;13.862;2024-03-23T08:11:24;13.83;;;4.50;;
18046;SDS011;9148;51.454;13.862;2024-03-23T08:13:51;5.20;;;3.43;;
18046;SDS011;9148;51.454;13.862;2024-03-23T08:16:17;6.43;;;3.40;;
18046;SDS011;9148;51.454;13.862;2024-03-23T08:18:43;8.73;;;3.07;;
18046;SDS011;9148;51.454;13.862;2024-03-23T08:21:09;9.07;;;3.80;;
18046;SDS011;9148;51.454;13.862;2024-03-23T08:23:35;7.30;;;4.00;;
18046;SDS011;9148;51.454;13.862;2024-03-23T08:26:04;7.70;;;4.07;;
18046;SDS011;9148;51.454;13.862;2024-03-23T08:28:31;6.50;;;3.90;;
18046;SDS011;9148;51.454;13.862;2024-03-23T08:30:57;5.27;;;3.17;;
18046;SDS011;9148;51.454;13.862;2024-03-23T08:33:28;11.60;;;3.53;;
18046;SDS011;9148;51.454;13.862;2024-03-23T08:35:55;17.77;;;3.77;;
18046;SDS011;9148;51.454;13.862;2024-03-23T08:38:25;4.83;;;2.60;;
18046;SDS011;9148;51.454;13.862;2024-03-23T08:41:02;3.53;;;3.23;;
18046;SDS011;9148;51.454;13.862;2024-03-23T08:43:36;5.03;;;3.50;;
18046;SDS011;9148;51.454;13.862;2024-03-23T08:46:04;6.43;;;3.23;;
18046;SDS011;9148;51.454;13.862;2024-03-23T08:48:35;7.20;;;3.90;;
18046;SDS011;9148;51.454;13.862;2024-03-23T08:51:03;8.10;;;3.77;;
18046;SDS011;9148;51.454;13.862;2024-03-23T08:53:31;6.97;;;2.73;;
18046;SDS011;9148;51.454;13.862;2024-03-23T08:55:57;9.50;;;3.87;;
18046;SDS011;9148;51.454;13.862;2024-03-23T08:58:25;2.90;;;2.57;;
18046;SDS011;9148;51.454;13.862;2024-03-23T09:00:52;3.63;;;2.63;;
18046;SDS011;9148;51.454;13.862;2024-03-23T09:03:22;5.23;;;3.77;;
18046;SDS011;9148;51.454;13.862;2024-03-23T09:05:49;7.17;;;3.47;;
18046;SDS011;9148;51.454;13.862;2024-03-23T09:08:16;7.47;;;3.77;;
18046;SDS011;9148;51.454;13.862;2024-03-23T09:10:42;9.83;;;3.93;;
18046;SDS011;9148;51.454;13.862;2024-03-23T09:13:08;9.20;;;4.33;;
18046;SDS011;9148;51.454;13.862;2024-03-23T09:15:34;11.37;;;4.73;;
18046;SDS011;9148;51.454;13.862;2024-03-23T09:18:02;4.27;;;3.63;;
18046;SDS011;9148;51.454;13.862;2024-03-23T09:20:28;12.67;;;3.60;;
18046;SDS011;9148;51.454;13.862;2024-03-23T09:22:54;4.67;;;3.80;;
18046;SDS011;9148;51.454;13.862;2024-03-23T09:25:20;7.50;;;4.10;;
18046;SDS011;9148;51.454;13.862;2024-03-23T09:27:46;6.20;;;4.00;;
18046;SDS011;9148;51.454;13.862;2024-03-23T09:30:12;10.73;;;5.37;;
18046;SDS011;9148;51.454;13.862;2024-03-23T09:32:39;6.30;;;4.83;;
18046;SDS011;9148;51.454;13.862;2024-03-23T09:35:07;11.13;;;5.17;;
18046;SDS011;9148;51.454;13.862;2024-03-23T09:37:32;5.97;;;3.93;;
18046;SDS011;9148;51.454;13.862;2024-03-23T09:39:58;7.67;;;4.47;;
18046;SDS011;9148;51.454;13.862;2024-03-23T09:42:24;8.33;;;3.43;;
18046;SDS011;9148;51.454;13.862;2024-03-23T09:44:50;5.77;;;2.63;;
18046;SDS011;9148;51.454;13.862;2024-03-23T09:47:17;4.77;;;2.80;;
18046;SDS011;9148;51.454;13.862;2024-03-23T09:49:43;1.83;;;1.63;;
18046;SDS011;9148;51.454;13.862;2024-03-23T09:52:09;3.17;;;2.27;;
18046;SDS011;9148;51.454;13.862;2024-03-23T09:54:35;2.07;;;1.87;;
18046;SDS011;9148;51.454;13.862;2024-03-23T09:57:01;3.37;;;1.40;;
18046;SDS011;9148;51.454;13.862;2024-03-23T09:59:27;3.53;;;1.67;;
18046;SDS011;9148;51.454;13.862;2024-03-23T10:01:54;7.43;;;1.47;;
18046;SDS011;9148;51.454;13.862;2024-03-23T10:04:39;3.50;;;1.10;;
18046;SDS011;9148;51.454;13.862;2024-03-23T10:07:13;3.67;;;2.27;;
18046;SDS011;9148;51.454;13.862;2024-03-23T10:09:48;5.60;;;2.57;;
18046;SDS011;9148;51.454;13.862;2024-03-23T10:12:16;1.67;;;1.33;;
18046;SDS011;9148;51.454;13.862;2024-03-23T10:14:43;1.80;;;1.27;;
18046;SDS011;9148;51.454;13.862;2024-03-23T10:17:17;3.30;;;1.27;;
18046;SDS011;9148;51.454;13.862;2024-03-23T10:19:50;1.90;;;1.40;;
18046;SDS011;9148;51.454;13.862;2024-03-23T10:22:21;2.17;;;1.40;;
18046;SDS011;9148;51.454;13.862;2024-03-23T10:24:49;1.90;;;1.27;;
18046;SDS011;9148;51.454;13.862;2024-03-23T10:27:15;4.13;;;0.90;;
18046;SDS011;9148;51.454;13.862;2024-03-23T10:29:53;2.47;;;0.77;;
18046;SDS011;9148;51.454;13.862;2024-03-23T10:32:37;1.27;;;0.83;;
18046;SDS011;9148;51.454;13.862;2024-03-23T10:37:48;0.33;;;0.33;;
18046;SDS011;9148;51.454;13.862;2024-03-23T10:40:16;0.67;;;0.53;;
18046;SDS011;9148;51.454;13.862;2024-03-23T10:42:43;0.33;;;0.30;;
18046;SDS011;9148;51.454;13.862;2024-03-23T10:45:09;0.10;;;0.10;;
18046;SDS011;9148;51.454;13.862;2024-03-23T10:47:36;0.40;;;0.30;;
18046;SDS011;9148;51.454;13.862;2024-03-23T10:50:03;0.67;;;0.27;;
18046;SDS011;9148;51.454;13.862;2024-03-23T10:52:30;0.20;;;0.20;;
18046;SDS011;9148;51.454;13.862;2024-03-23T10:55:00;0.43;;;0.43;;
18046;SDS011;9148;51.454;13.862;2024-03-23T10:57:31;0.67;;;0.60;;
18046;SDS011;9148;51.454;13.862;2024-03-23T11:00:05;0.17;;;0.17;;
18046;SDS011;9148;51.454;13.862;2024-03-23T11:02:32;0.60;;;0.27;;
18046;SDS011;9148;51.454;13.862;2024-03-23T11:04:57;0.40;;;0.40;;
18046;SDS011;9148;51.454;13.862;2024-03-23T11:09:49;0.23;;;0.10;;
18046;SDS011;9148;51.454;13.862;2024-03-23T11:14:58;0.20;;;0.10;;
18046;SDS011;9148;51.454;13.862;2024-03-23T11:18:01;0.10;;;0.10;;
18046;SDS011;9148;51.454;13.862;2024-03-23T11:20:32;0.50;;;0.30;;
18046;SDS011;9148;51.454;13.862;2024-03-23T11:22:58;0.20;;;0.20;;
18046;SDS011;9148;51.454;13.862;2024-03-23T11:25:25;0.23;;;0.23;;
18046;SDS011;9148;51.454;13.862;2024-03-23T11:27:53;0.60;;;0.30;;
18046;SDS011;9148;51.454;13.862;2024-03-23T11:30:24;0.30;;;0.30;;
18046;SDS011;9148;51.454;13.862;2024-03-23T11:32:53;0.10;;;0.10;;
18046;SDS011;9148;51.454;13.862;2024-03-23T11:38:05;0.20;;;0.20;;
18046;SDS011;9148;51.454;13.862;2024-03-23T11:40:52;0.30;;;0.30;;
18046;SDS011;9148;51.454;13.862;2024-03-23T11:43:19;0.10;;;0.10;;
18046;SDS011;9148;51.454;13.862;2024-03-23T11:45:47;0.20;;;0.20;;
18046;SDS011;9148;51.454;13.862;2024-03-23T11:48:20;0.33;;;0.30;;
18046;SDS011;9148;51.454;13.862;2024-03-23T11:50:48;0.10;;;0.10;;
18046;SDS011;9148;51.454;13.862;2024-03-23T11:58:25;2.67;;;0.40;;
18046;SDS011;9148;51.454;13.862;2024-03-23T12:00:57;3.40;;;0.43;;
18046;SDS011;9148;51.454;13.862;2024-03-23T12:03:24;0.47;;;0.30;;
18046;SDS011;9148;51.454;13.862;2024-03-23T12:05:53;0.30;;;0.30;;
18046;SDS011;9148;51.454;13.862;2024-03-23T12:08:25;0.20;;;0.20;;
18046;SDS011;9148;51.454;13.862;2024-03-23T12:11:04;0.33;;;0.20;;
18046;SDS011;9148;51.454;13.862;2024-03-23T12:13:38;0.23;;;0.20;;
18046;SDS011;9148;51.454;13.862;2024-03-23T12:16:16;0.00;;;0.00;;
18046;SDS011;9148;51.454;13.862;2024-03-23T12:18:45;0.20;;;0.20;;
18046;SDS011;9148;51.454;13.862;2024-03-23T12:21:14;0.20;;;0.20;;
18046;SDS011;9148;51.454;13.862;2024-03-23T12:23:40;0.27;;;0.23;;
18046;SDS011;9148;51.454;13.862;2024-03-23T12:26:06;0.10;;;0.10;;
18046;SDS011;9148;51.454;13.862;2024-03-23T12:28:32;0.30;;;0.30;;
18046;SDS011;9148;51.454;13.862;2024-03-23T12:30:58;0.40;;;0.30;;
18046;SDS011;9148;51.454;13.862;2024-03-23T12:33:24;0.20;;;0.20;;
18046;SDS011;9148;51.454;13.862;2024-03-23T12:35:50;0.63;;;0.23;;
18046;SDS011;9148;51.454;13.862;2024-03-23T12:38:16;0.30;;;0.30;;
18046;SDS011;9148;51.454;13.862;2024-03-23T12:40:46;0.93;;;0.57;;
18046;SDS011;9148;51.454;13.862;2024-03-23T12:43:13;0.30;;;0.30;;
18046;SDS011;9148;51.454;13.862;2024-03-23T12:45:39;0.17;;;0.17;;
18046;SDS011;9148;51.454;13.862;2024-03-23T12:48:05;0.37;;;0.37;;
18046;SDS011;9148;51.454;13.862;2024-03-23T12:50:31;0.50;;;0.30;;
18046;SDS011;9148;51.454;13.862;2024-03-23T12:52:57;0.20;;;0.20;;
18046;SDS011;9148;51.454;13.862;2024-03-23T12:55:23;0.40;;;0.40;;
18046;SDS011;9148;51.454;13.862;2024-03-23T12:57:48;0.30;;;0.30;;
18046;SDS011;9148;51.454;13.862;2024-03-23T13:00:14;1.00;;;0.77;;
18046;SDS011;9148;51.454;13.862;2024-03-23T13:02:43;1.13;;;0.63;;
18046;SDS011;9148;51.454;13.862;2024-03-23T13:05:09;1.17;;;0.70;;
18046;SDS011;9148;51.454;13.862;2024-03-23T13:07:35;1.33;;;0.50;;
18046;SDS011;9148;51.454;13.862;2024-03-23T13:10:02;1.10;;;0.40;;
18046;SDS011;9148;51.454;13.862;2024-03-23T13:12:29;0.57;;;0.40;;
18046;SDS011;9148;51.454;13.862;2024-03-23T13:14:59;1.70;;;1.20;;
18046;SDS011;9148;51.454;13.862;2024-03-23T13:17:25;2.20;;;1.73;;
18046;SDS011;9148;51.454;13.862;2024-03-23T13:19:54;3.00;;;1.50;;
18046;SDS011;9148;51.454;13.862;2024-03-23T13:22:23;2.93;;;0.80;;
18046;SDS011;9148;51.454;13.862;2024-03-23T13:24:48;12.60;;;1.27;;
18046;SDS011;9148;51.454;13.862;2024-03-23T13:27:15;2.33;;;1.43;;
18046;SDS011;9148;51.454;13.862;2024-03-23T13:29:40;4.20;;;1.13;;
18046;SDS011;9148;51.454;13.862;2024-03-23T13:32:06;0.57;;;0.57;;
18046;SDS011;9148;51.454;13.862;2024-03-23T13:34:35;2.60;;;1.00;;
18046;SDS011;9148;51.454;13.862;2024-03-23T13:37:01;1.73;;;0.90;;
18046;SDS011;9148;51.454;13.862;2024-03-23T13:39:26;2.17;;;0.80;;
18046;SDS011;9148;51.454;13.862;2024-03-23T13:41:52;0.73;;;0.50;;
18046;SDS011;9148;51.454;13.862;2024-03-23T13:44:21;1.17;;;0.50;;
18046;SDS011;9148;51.454;13.862;2024-03-23T13:46:47;1.07;;;0.63;;
18046;SDS011;9148;51.454;13.862;2024-03-23T13:49:26;1.63;;;0.83;;
18046;SDS011;9148;51.454;13.862;2024-03-23T13:51:54;0.60;;;0.50;;
18046;SDS011;9148;51.454;13.862;2024-03-23T13:54:21;2.47;;;0.80;;
18046;SDS011;9148;51.454;13.862;2024-03-23T13:56:47;1.07;;;0.83;;
18046;SDS011;9148;51.454;13.862;2024-03-23T13:59:14;2.17;;;0.90;;
18046;SDS011;9148;51.454;13.862;2024-03-23T14:01:40;5.50;;;0.50;;
18046;SDS011;9148;51.454;13.862;2024-03-23T14:04:06;1.87;;;1.13;;
18046;SDS011;9148;51.454;13.862;2024-03-23T14:06:32;2.27;;;1.13;;
18046;SDS011;9148;51.454;13.862;2024-03-23T14:08:58;2.10;;;0.67;;
18046;SDS011;9148;51.454;13.862;2024-03-23T14:11:24;1.10;;;0.70;;
18046;SDS011;9148;51.454;13.862;2024-03-23T14:13:51;0.93;;;0.70;;
18046;SDS011;9148;51.454;13.862;2024-03-23T14:16:18;1.23;;;0.73;;
18046;SDS011;9148;51.454;13.862;2024-03-23T14:18:46;1.43;;;0.53;;
18046;SDS011;9148;51.454;13.862;2024-03-23T14:21:12;0.50;;;0.50;;
18046;SDS011;9148;51.454;13.862;2024-03-23T14:23:37;1.07;;;0.93;;
18046;SDS011;9148;51.454;13.862;2024-03-23T14:26:05;0.97;;;0.90;;
18046;SDS011;9148;51.454;13.862;2024-03-23T14:28:31;1.00;;;0.90;;
18046;SDS011;9148;51.454;13.862;2024-03-23T14:30:57;3.27;;;1.00;;
18046;SDS011;9148;51.454;13.862;2024-03-23T14:33:24;5.47;;;1.47;;
18046;SDS011;9148;51.454;13.862;2024-03-23T14:35:55;4.47;;;0.93;;
18046;SDS011;9148;51.454;13.862;2024-03-23T14:38:22;2.57;;;1.50;;
18046;SDS011;9148;51.454;13.862;2024-03-23T14:40:48;0.73;;;0.73;;
18046;SDS011;9148;51.454;13.862;2024-03-23T14:43:14;1.07;;;0.83;;
18046;SDS011;9148;51.454;13.862;2024-03-23T14:48:40;1.13;;;0.67;;
18046;SDS011;9148;51.454;13.862;2024-03-23T14:51:07;1.00;;;0.90;;
18046;SDS011;9148;51.454;13.862;2024-03-23T14:53:34;2.17;;;0.80;;
18046;SDS011;9148;51.454;13.862;2024-03-23T14:56:08;2.17;;;0.73;;
18046;SDS011;9148;51.454;13.862;2024-03-23T14:58:40;2.60;;;0.80;;
18046;SDS011;9148;51.454;13.862;2024-03-23T15:01:06;2.90;;;0.80;;
18046;SDS011;9148;51.454;13.862;2024-03-23T15:03:34;2.67;;;1.30;;
18046;SDS011;9148;51.454;13.862;2024-03-23T15:06:01;2.47;;;0.97;;
18046;SDS011;9148;51.454;13.862;2024-03-23T15:08:27;0.87;;;0.83;;
18046;SDS011;9148;51.454;13.862;2024-03-23T15:10:54;5.20;;;2.50;;
18046;SDS011;9148;51.454;13.862;2024-03-23T15:13:23;3.60;;;0.97;;
18046;SDS011;9148;51.454;13.862;2024-03-23T15:15:49;3.50;;;1.23;;
18046;SDS011;9148;51.454;13.862;2024-03-23T15:18:16;3.60;;;0.97;;
18046;SDS011;9148;51.454;13.862;2024-03-23T15:20:53;3.87;;;1.27;;
18046;SDS011;9148;51.454;13.862;2024-03-23T15:23:26;1.40;;;0.73;;
18046;SDS011;9148;51.454;13.862;2024-03-23T15:25:56;0.80;;;0.80;;
18046;SDS011;9148;51.454;13.862;2024-03-23T15:28:26;4.37;;;1.07;;
18046;SDS011;9148;51.454;13.862;2024-03-23T15:31:05;1.97;;;0.90;;
18046;SDS011;9148;51.454;13.862;2024-03-23T15:33:34;6.70;;;1.30;;
18046;SDS011;9148;51.454;13.862;2024-03-23T15:36:00;1.73;;;0.60;;
18046;SDS011;9148;51.454;13.862;2024-03-23T15:38:26;1.37;;;0.97;;
18046;SDS011;9148;51.454;13.862;2024-03-23T15:40:54;2.13;;;0.93;;
18046;SDS011;9148;51.454;13.862;2024-03-23T15:43:20;1.77;;;1.00;;
18046;SDS011;9148;51.454;13.862;2024-03-23T15:45:55;2.80;;;1.00;;
18046;SDS011;9148;51.454;13.862;2024-03-23T15:48:21;1.23;;;0.83;;
18046;SDS011;9148;51.454;13.862;2024-03-23T15:50:51;0.90;;;0.53;;
18046;SDS011;9148;51.454;13.862;2024-03-23T15:53:18;0.50;;;0.40;;